createdAt,value
2022-08-30T00:02:20.839Z,1.80
2022-08-30T00:04:48.495Z,2.22
2022-08-30T00:07:15.636Z,2.85
2022-08-30T00:09:42.717Z,1.90
2022-08-30T00:12:10.710Z,2.13
2022-08-30T00:14:38.036Z,3.83
2022-08-30T00:17:05.206Z,2.85
2022-08-30T00:19:32.661Z,1.98
2022-08-30T00:21:59.890Z,2.75
2022-08-30T00:24:27.175Z,2.00
2022-08-30T00:26:54.364Z,2.13
2022-08-30T00:29:21.532Z,2.40
2022-08-30T00:31:48.837Z,2.13
2022-08-30T00:34:16.726Z,2.58
2022-08-30T00:36:46.752Z,2.30
2022-08-30T00:39:13.928Z,1.90
2022-08-30T00:41:41.132Z,2.47
2022-08-30T00:44:08.445Z,3.05
2022-08-30T00:46:35.661Z,4.05
2022-08-30T00:49:04.262Z,2.25
2022-08-30T00:51:31.788Z,2.13
2022-08-30T00:53:59.251Z,2.50
2022-08-30T00:56:26.806Z,4.60
2022-08-30T00:58:55.839Z,4.82
2022-08-30T01:01:23.247Z,2.88
2022-08-30T01:03:50.757Z,2.85
2022-08-30T01:06:18.141Z,2.85
2022-08-30T01:08:46.722Z,3.83
2022-08-30T01:11:16.537Z,4.65
2022-08-30T01:13:44.144Z,3.45
2022-08-30T01:16:11.378Z,3.30
2022-08-30T01:18:39.619Z,3.17
2022-08-30T01:21:35.281Z,3.38
2022-08-30T01:24:03.157Z,4.05
2022-08-30T01:26:30.996Z,3.05
2022-08-30T01:29:03.165Z,6.40
2022-08-30T01:31:30.410Z,4.75
2022-08-30T01:33:57.542Z,3.67
2022-08-30T01:36:25.343Z,2.90
2022-08-30T01:38:55.702Z,4.10
2022-08-30T01:41:29.742Z,2.53
2022-08-30T01:43:59.724Z,2.72
2022-08-30T01:46:31.202Z,3.65
2022-08-30T01:48:58.630Z,5.18
2022-08-30T01:51:27.781Z,3.40
2022-08-30T01:53:55.663Z,3.15
2022-08-30T01:56:24.367Z,5.05
2022-08-30T01:58:51.963Z,3.67
2022-08-30T02:01:22.297Z,4.18
2022-08-30T02:03:49.543Z,3.63
2022-08-30T02:06:19.879Z,3.25
2022-08-30T02:08:47.229Z,3.03
2022-08-30T02:11:15.813Z,2.65
2022-08-30T02:13:44.444Z,4.30
2022-08-30T02:16:14.427Z,3.72
2022-08-30T02:18:41.774Z,3.47
2022-08-30T02:21:08.898Z,5.40
2022-08-30T02:23:36.547Z,3.50
2022-08-30T02:26:04.565Z,3.15
2022-08-30T02:28:31.698Z,3.55
2022-08-30T02:31:00.104Z,5.00
2022-08-30T02:33:27.390Z,3.95
2022-08-30T02:35:56.090Z,5.30
2022-08-30T02:38:23.805Z,4.95
2022-08-30T02:40:51.590Z,5.43
2022-08-30T02:43:18.931Z,3.45
2022-08-30T02:45:46.094Z,5.28
2022-08-30T02:48:13.241Z,3.42
2022-08-30T02:50:42.926Z,6.57
2022-08-30T02:53:10.225Z,4.47
2022-08-30T02:55:41.206Z,3.20
2022-08-30T02:58:10.515Z,10.45
2022-08-30T03:00:38.715Z,3.95
2022-08-30T03:03:07.447Z,7.25
2022-08-30T03:05:35.029Z,4.53
2022-08-30T03:08:05.125Z,4.63
2022-08-30T03:10:32.246Z,7.47
2022-08-30T03:12:59.466Z,4.72
2022-08-30T03:15:27.009Z,4.20
2022-08-30T03:17:54.940Z,4.72
2022-08-30T03:20:24.954Z,5.22
2022-08-30T03:22:52.474Z,5.45
2022-08-30T03:25:23.271Z,5.03
2022-08-30T03:27:51.066Z,4.78
2022-08-30T03:30:19.841Z,5.32
2022-08-30T03:32:47.299Z,6.47
2022-08-30T03:35:15.112Z,5.25
2022-08-30T03:37:42.329Z,6.63
2022-08-30T03:40:11.366Z,3.60
2022-08-30T03:42:38.556Z,5.47
2022-08-30T03:45:07.640Z,3.58
2022-08-30T03:47:34.801Z,5.70
2022-08-30T03:50:02.293Z,6.22
2022-08-30T03:52:29.437Z,4.97
2022-08-30T03:54:56.660Z,4.03
2022-08-30T03:57:24.597Z,5.75
2022-08-30T03:59:51.993Z,11.15
2022-08-30T04:02:19.943Z,7.15
2022-08-30T04:04:47.224Z,7.60
2022-08-30T04:07:14.413Z,4.70
2022-08-30T04:09:41.868Z,5.63
2022-08-30T04:12:09.289Z,6.68
2022-08-30T04:14:36.393Z,6.28
2022-08-30T04:17:03.608Z,4.28
2022-08-30T04:19:30.856Z,4.88
2022-08-30T04:21:58.011Z,5.15
2022-08-30T04:24:25.419Z,3.75
2022-08-30T04:26:52.899Z,6.32
2022-08-30T04:29:20.024Z,3.95
2022-08-30T04:31:47.228Z,4.43
2022-08-30T04:34:14.841Z,6.78
2022-08-30T04:36:41.937Z,5.63
2022-08-30T04:39:16.269Z,4.35
2022-08-30T04:41:43.428Z,6.22
2022-08-30T04:44:14.231Z,5.18
2022-08-30T04:46:47.166Z,4.13
2022-08-30T04:49:14.651Z,5.45
2022-08-30T04:51:41.905Z,7.40
2022-08-30T04:54:09.053Z,5.05
2022-08-30T04:56:36.468Z,8.23
2022-08-30T04:59:04.244Z,5.38
2022-08-30T05:01:44.491Z,6.10
2022-08-30T05:04:12.510Z,4.90
2022-08-30T05:06:39.620Z,5.93
2022-08-30T05:09:06.742Z,6.35
2022-08-30T05:11:33.883Z,6.90
2022-08-30T05:14:00.975Z,6.25
2022-08-30T05:16:29.157Z,5.35
2022-08-30T05:18:56.379Z,7.65
2022-08-30T05:21:26.537Z,7.28
2022-08-30T05:23:57.860Z,6.28
2022-08-30T05:26:30.932Z,7.95
2022-08-30T05:28:58.559Z,7.35
2022-08-30T05:31:28.852Z,6.15
2022-08-30T05:33:56.473Z,7.47
2022-08-30T05:36:26.363Z,6.45
2022-08-30T05:38:54.833Z,8.18
2022-08-30T05:41:23.175Z,6.82
2022-08-30T05:43:55.780Z,9.68
2022-08-30T05:46:23.636Z,7.18
2022-08-30T05:48:51.316Z,7.45
2022-08-30T05:51:23.457Z,7.88
2022-08-30T05:53:53.149Z,6.35
2022-08-30T05:56:25.962Z,8.60
2022-08-30T05:58:54.496Z,8.48
2022-08-30T06:01:33.304Z,7.63
2022-08-30T06:04:04.042Z,9.85
2022-08-30T06:06:33.772Z,7.28
2022-08-30T06:09:00.985Z,8.27
2022-08-30T06:11:30.999Z,4.72
2022-08-30T06:13:58.136Z,9.70
2022-08-30T06:16:26.990Z,6.90
2022-08-30T06:18:56.241Z,8.45
2022-08-30T06:21:26.676Z,6.20
2022-08-30T06:23:54.311Z,10.15
2022-08-30T06:26:21.537Z,8.50
2022-08-30T06:28:49.237Z,9.15
2022-08-30T06:31:18.741Z,7.55
2022-08-30T06:33:46.915Z,10.82
2022-08-30T06:36:17.471Z,9.38
2022-08-30T06:38:45.310Z,10.43
2022-08-30T06:41:19.005Z,8.65
2022-08-30T06:43:49.092Z,10.68
2022-08-30T06:46:22.680Z,12.57
2022-08-30T06:48:49.884Z,11.15
2022-08-30T06:51:21.635Z,12.32
2022-08-30T06:53:50.309Z,13.93
2022-08-30T06:56:18.917Z,13.98
2022-08-30T06:58:47.244Z,12.18
2022-08-30T07:01:16.768Z,12.95
2022-08-30T07:03:44.261Z,15.18
2022-08-30T07:06:11.491Z,36.53
2022-08-30T07:08:38.779Z,10.93
2022-08-30T07:11:07.689Z,13.02
2022-08-30T07:13:37.065Z,12.18
2022-08-30T07:16:15.024Z,10.43
2022-08-30T07:18:52.314Z,11.45
2022-08-30T07:21:22.435Z,9.23
2022-08-30T07:23:53.379Z,10.32
2022-08-30T07:26:32.276Z,7.88
2022-08-30T07:29:00.223Z,7.70
2022-08-30T07:31:27.641Z,11.57
2022-08-30T07:33:55.275Z,9.80
2022-08-30T07:36:23.480Z,10.60
2022-08-30T07:38:51.412Z,8.40
2022-08-30T07:41:25.543Z,8.80
2022-08-30T07:43:53.028Z,7.82
2022-08-30T07:46:21.446Z,7.38
2022-08-30T07:48:48.988Z,8.73
2022-08-30T07:51:19.553Z,7.75
2022-08-30T07:53:47.784Z,10.20
2022-08-30T07:56:15.634Z,6.65
2022-08-30T07:58:43.905Z,6.60
2022-08-30T08:01:12.949Z,8.63
2022-08-30T08:03:41.475Z,8.80
2022-08-30T08:06:10.947Z,8.27
2022-08-30T08:08:38.975Z,20.52
2022-08-30T08:11:08.815Z,42.50
2022-08-30T08:13:52.631Z,23.88
2022-08-30T08:16:27.215Z,10.47
2022-08-30T08:18:55.064Z,6.47
2022-08-30T08:21:24.410Z,5.63
2022-08-30T08:23:52.123Z,4.72
2022-08-30T08:26:20.546Z,6.47
2022-08-30T08:28:47.820Z,4.45
2022-08-30T08:31:19.030Z,6.07
2022-08-30T08:33:47.744Z,2.58
2022-08-30T08:36:21.814Z,4.32
2022-08-30T08:38:49.282Z,4.60
2022-08-30T08:41:43.707Z,5.45
2022-08-30T08:44:25.037Z,2.72
2022-08-30T08:47:00.979Z,2.78
2022-08-30T08:49:30.548Z,1.92
2022-08-30T08:52:17.350Z,2.28
2022-08-30T08:54:52.893Z,2.80
2022-08-30T08:57:24.697Z,2.35
2022-08-30T08:59:54.491Z,1.63
2022-08-30T09:02:28.713Z,1.10
2022-08-30T09:05:01.747Z,1.58
2022-08-30T09:07:47.035Z,1.63
2022-08-30T09:10:14.373Z,1.15
2022-08-30T09:12:41.735Z,1.35
2022-08-30T09:15:24.816Z,3.10
2022-08-30T09:18:04.541Z,2.08
2022-08-30T09:20:41.533Z,3.45
2022-08-30T09:23:28.772Z,4.30
2022-08-30T09:26:02.114Z,3.08
2022-08-30T09:29:05.236Z,4.32
2022-08-30T09:32:01.283Z,3.60
2022-08-30T09:34:46.383Z,3.53
2022-08-30T09:37:32.490Z,2.75
2022-08-30T09:40:00.609Z,4.07
2022-08-30T09:42:34.985Z,1.95
2022-08-30T09:45:22.323Z,2.50
2022-08-30T09:47:58.783Z,5.00
2022-08-30T09:50:47.752Z,1.70
2022-08-30T09:57:33.573Z,1.85
2022-08-30T10:00:16.730Z,3.72
2022-08-30T10:02:59.356Z,1.27
2022-08-30T10:05:38.174Z,4.18
2022-08-30T10:08:30.642Z,1.10
2022-08-30T10:11:37.551Z,6.53
2022-08-30T10:14:33.905Z,1.20
2022-08-30T10:17:13.174Z,2.33
2022-08-30T10:20:16.259Z,2.30
2022-08-30T10:23:10.972Z,0.93
2022-08-30T10:25:39.129Z,1.92
2022-08-30T10:28:35.683Z,1.92
2022-08-30T10:31:07.148Z,1.80
2022-08-30T10:33:40.760Z,2.05
2022-08-30T10:36:11.220Z,1.55
2022-08-30T10:38:40.809Z,1.02
2022-08-30T10:41:20.027Z,1.67
2022-08-30T10:44:15.850Z,2.88
2022-08-30T10:46:58.260Z,1.00
2022-08-30T10:49:27.295Z,2.00
2022-08-30T10:51:58.888Z,3.45
2022-08-30T10:54:49.042Z,2.45
2022-08-30T10:57:17.225Z,3.45
2022-08-30T10:59:50.141Z,2.20
2022-08-30T11:02:17.323Z,2.17
2022-08-30T11:04:53.140Z,1.30
2022-08-30T11:07:57.622Z,5.30
2022-08-30T11:10:49.869Z,1.15
2022-08-30T11:13:29.737Z,1.50
2022-08-30T11:16:06.526Z,1.50
2022-08-30T11:18:43.422Z,1.75
2022-08-30T11:21:29.208Z,2.42
2022-08-30T11:24:02.046Z,1.23
2022-08-30T11:26:48.275Z,1.60
2022-08-30T11:29:33.502Z,2.28
2022-08-30T11:32:25.103Z,1.25
2022-08-30T11:34:57.902Z,1.15
2022-08-30T11:37:44.362Z,2.28
2022-08-30T11:40:20.338Z,4.75
2022-08-30T11:42:49.662Z,2.00
2022-08-30T11:45:28.380Z,2.05
2022-08-30T11:48:05.678Z,4.10
2022-08-30T11:50:55.537Z,2.10
2022-08-30T11:53:31.688Z,4.85
2022-08-30T11:56:17.406Z,3.50
2022-08-30T11:58:58.469Z,1.42
2022-08-30T12:01:49.730Z,2.45
2022-08-30T12:04:19.656Z,4.38
2022-08-30T12:06:51.249Z,4.67
2022-08-30T12:09:21.013Z,1.42
2022-08-30T12:11:56.984Z,2.55
2022-08-30T12:14:52.647Z,1.73
2022-08-30T12:18:03.485Z,1.02
2022-08-30T12:20:48.532Z,1.10
2022-08-30T12:23:27.122Z,1.42
2022-08-30T12:26:13.163Z,2.45
2022-08-30T12:28:42.113Z,2.40
2022-08-30T12:31:16.417Z,4.68
2022-08-30T12:33:48.906Z,2.92
2022-08-30T12:36:40.586Z,4.90
2022-08-30T12:39:17.017Z,2.00
2022-08-30T12:41:45.210Z,2.38
2022-08-30T12:44:21.120Z,5.30
2022-08-30T12:46:50.428Z,3.53
2022-08-30T12:49:18.774Z,2.50
2022-08-30T12:51:46.358Z,2.30
2022-08-30T12:54:29.911Z,2.28
2022-08-30T12:57:01.414Z,3.38
2022-08-30T12:59:58.144Z,2.72
2022-08-30T13:02:41.861Z,3.03
2022-08-30T13:05:27.645Z,2.95
2022-08-30T13:08:12.197Z,4.18
2022-08-30T13:10:49.503Z,2.05
2022-08-30T13:13:36.012Z,5.10
2022-08-30T13:16:31.272Z,7.28
2022-08-30T13:19:28.187Z,3.40
2022-08-30T13:21:57.223Z,2.47
2022-08-30T13:24:25.852Z,2.50
2022-08-30T13:26:58.844Z,3.72
2022-08-30T13:29:28.717Z,1.50
2022-08-30T13:31:56.008Z,2.05
2022-08-30T13:34:23.561Z,2.42
2022-08-30T13:36:55.691Z,3.28
2022-08-30T13:39:23.706Z,7.40
2022-08-30T13:41:51.833Z,4.05
2022-08-30T13:44:19.156Z,3.15
2022-08-30T13:46:54.169Z,2.05
2022-08-30T13:52:22.335Z,2.75
2022-08-30T13:54:51.238Z,2.30
2022-08-30T14:00:12.602Z,4.07
2022-08-30T14:02:46.334Z,3.13
2022-08-30T14:05:37.252Z,2.83
2022-08-30T14:08:00.814Z,5.97
2022-08-30T14:10:31.505Z,7.38
2022-08-30T14:13:07.747Z,6.82
2022-08-30T14:15:39.540Z,3.33
2022-08-30T14:18:08.074Z,3.40
2022-08-30T14:20:38.827Z,3.63
2022-08-30T14:23:09.912Z,5.00
2022-08-30T14:25:37.743Z,2.13
2022-08-30T14:28:09.742Z,2.42
2022-08-30T14:30:37.196Z,5.57
2022-08-30T14:33:04.726Z,3.00
2022-08-30T14:35:32.930Z,3.30
2022-08-30T14:38:01.128Z,6.15
2022-08-30T14:40:28.420Z,2.95
2022-08-30T14:42:55.768Z,2.92
2022-08-30T14:45:22.862Z,5.95
2022-08-30T14:47:51.289Z,3.95
2022-08-30T14:50:18.405Z,3.90
2022-08-30T14:52:46.447Z,4.05
2022-08-30T14:55:13.724Z,2.30
2022-08-30T14:57:41.080Z,2.70
2022-08-30T15:00:11.357Z,6.30
2022-08-30T15:02:38.516Z,4.55
2022-08-30T15:05:06.900Z,5.78
2022-08-30T15:07:36.349Z,2.30
2022-08-30T15:10:05.731Z,2.72
2022-08-30T15:12:32.884Z,3.13
2022-08-30T15:15:00.128Z,6.07
2022-08-30T15:17:27.516Z,6.85
2022-08-30T15:19:55.281Z,5.22
2022-08-30T15:22:22.519Z,2.35
2022-08-30T15:24:50.866Z,6.55
2022-08-30T15:27:18.291Z,1.75
2022-08-30T15:29:45.427Z,2.42
2022-08-30T15:32:12.775Z,2.90
2022-08-30T15:34:40.048Z,2.67
2022-08-30T15:37:07.366Z,2.40
2022-08-30T15:39:35.136Z,3.20
2022-08-30T15:42:02.485Z,2.75
2022-08-30T15:44:32.667Z,4.07
2022-08-30T15:47:01.882Z,3.25
2022-08-30T15:49:29.535Z,3.05
2022-08-30T15:52:00.956Z,3.88
2022-08-30T15:54:28.592Z,3.65
2022-08-30T15:56:59.398Z,2.40
2022-08-30T15:59:28.295Z,2.90
2022-08-30T16:01:55.489Z,2.22
2022-08-30T16:04:24.801Z,3.25
2022-08-30T16:06:53.694Z,2.65
2022-08-30T16:09:21.686Z,2.55
2022-08-30T16:11:49.219Z,2.92
2022-08-30T16:14:16.727Z,3.80
2022-08-30T16:16:44.214Z,1.75
2022-08-30T16:19:11.749Z,2.30
2022-08-30T16:21:39.863Z,1.63
2022-08-30T16:24:10.526Z,2.88
2022-08-30T16:26:37.940Z,1.83
2022-08-30T16:29:07.302Z,3.33
2022-08-30T16:31:36.117Z,2.97
2022-08-30T16:34:04.515Z,2.53
2022-08-30T16:36:33.230Z,1.85
2022-08-30T16:39:00.773Z,1.40
2022-08-30T16:41:28.502Z,1.70
2022-08-30T16:43:56.068Z,2.35
2022-08-30T16:46:27.245Z,2.90
2022-08-30T16:48:57.936Z,2.10
2022-08-30T16:51:27.364Z,2.95
2022-08-30T16:53:58.078Z,1.90
2022-08-30T16:56:28.096Z,2.00
2022-08-30T16:59:01.080Z,1.70
2022-08-30T17:01:31.815Z,1.60
2022-08-30T17:04:00.096Z,2.90
2022-08-30T17:06:27.714Z,4.97
2022-08-30T17:08:56.114Z,1.75
2022-08-30T17:11:24.557Z,1.38
2022-08-30T17:13:52.557Z,3.05
2022-08-30T17:16:27.436Z,3.00
2022-08-30T17:18:59.866Z,1.73
2022-08-30T17:21:29.139Z,5.07
2022-08-30T17:26:44.717Z,2.25
2022-08-30T17:29:15.807Z,1.67
2022-08-30T17:31:46.510Z,3.55
2022-08-30T17:34:21.818Z,1.95
2022-08-30T17:36:50.742Z,2.88
2022-08-30T17:39:18.430Z,4.55
2022-08-30T17:41:50.720Z,2.75
2022-08-30T17:44:20.234Z,2.70
2022-08-30T17:46:47.697Z,2.05
2022-08-30T17:49:15.086Z,2.50
2022-08-30T17:51:43.547Z,2.25
2022-08-30T17:54:12.648Z,2.53
2022-08-30T17:56:41.567Z,4.70
2022-08-30T17:59:10.768Z,2.85
2022-08-30T18:01:38.049Z,1.90
2022-08-30T18:04:06.555Z,2.15
2022-08-30T18:06:35.439Z,2.88
2022-08-30T18:09:06.655Z,3.38
2022-08-30T18:11:36.158Z,2.78
2022-08-30T18:14:04.640Z,4.28
2022-08-30T18:16:33.464Z,2.40
2022-08-30T18:19:09.490Z,4.70
2022-08-30T18:21:37.796Z,4.63
2022-08-30T18:24:06.073Z,4.18
2022-08-30T18:26:33.671Z,5.95
2022-08-30T18:29:02.002Z,4.38
2022-08-30T18:31:29.656Z,3.47
2022-08-30T18:34:00.189Z,2.50
2022-08-30T18:36:28.676Z,2.45
2022-08-30T18:38:56.036Z,3.13
2022-08-30T18:41:25.850Z,3.20
2022-08-30T18:44:11.071Z,2.38
2022-08-30T18:46:55.791Z,2.95
2022-08-30T18:49:27.477Z,2.47
2022-08-30T18:51:54.820Z,3.00
2022-08-30T18:54:22.618Z,2.17
2022-08-30T18:56:51.778Z,4.75
2022-08-30T18:59:19.642Z,3.25
2022-08-30T19:01:48.609Z,2.30
2022-08-30T19:04:22.534Z,2.88
2022-08-30T19:06:57.578Z,3.47
2022-08-30T19:09:26.658Z,7.28
2022-08-30T19:11:55.053Z,4.53
2022-08-30T19:14:22.383Z,2.58
2022-08-30T19:16:49.566Z,4.35
2022-08-30T19:19:18.688Z,4.93
2022-08-30T19:21:45.957Z,4.65
2022-08-30T19:24:13.236Z,4.35
2022-08-30T19:26:48.701Z,3.38
2022-08-30T19:29:16.388Z,2.97
2022-08-30T19:31:43.999Z,2.30
2022-08-30T19:34:11.933Z,4.05
2022-08-30T19:36:39.493Z,4.55
2022-08-30T19:39:07.914Z,4.20
2022-08-30T19:41:36.922Z,8.23
2022-08-30T19:44:05.510Z,3.15
2022-08-30T19:46:32.836Z,3.38
2022-08-30T19:49:03.872Z,4.95
2022-08-30T19:51:31.499Z,3.78
2022-08-30T19:54:01.475Z,4.05
2022-08-30T19:57:21.351Z,2.85
2022-08-30T19:59:23.193Z,5.35
2022-08-30T20:01:51.309Z,2.50
2022-08-30T20:04:19.735Z,5.13
2022-08-30T20:06:48.639Z,5.20
2022-08-30T20:09:17.329Z,7.32
2022-08-30T20:11:45.804Z,2.40
2022-08-30T20:14:18.100Z,2.88
2022-08-30T20:16:47.491Z,2.78
2022-08-30T20:19:17.081Z,3.53
2022-08-30T20:21:46.362Z,3.05
2022-08-30T20:24:14.510Z,3.13
2022-08-30T20:24:25.100Z,3.80
2022-08-30T20:26:41.988Z,2.50
2022-08-30T20:29:09.399Z,4.03
2022-08-30T20:31:36.915Z,3.63
2022-08-30T20:34:04.514Z,7.15
2022-08-30T20:36:33.674Z,4.50
2022-08-30T20:39:02.108Z,2.28
2022-08-30T20:41:31.205Z,2.22
2022-08-30T20:43:58.448Z,4.80
2022-08-30T20:46:27.029Z,2.20
2022-08-30T20:48:56.852Z,2.85
2022-08-30T20:51:24.243Z,2.35
2022-08-30T20:53:51.804Z,1.75
2022-08-30T20:56:21.616Z,3.05
2022-08-30T20:58:50.178Z,1.85
2022-08-30T21:01:18.472Z,3.83
2022-08-30T21:03:47.621Z,2.80
2022-08-30T21:06:16.557Z,1.83
2022-08-30T21:08:43.960Z,1.73
2022-08-30T21:11:11.496Z,1.77
2022-08-30T21:13:39.947Z,1.77
2022-08-30T21:16:07.714Z,3.38
2022-08-30T21:18:36.555Z,2.00
2022-08-30T21:21:12.469Z,2.92
2022-08-30T21:23:39.957Z,6.53
2022-08-30T21:26:07.849Z,7.70
2022-08-30T21:28:35.599Z,10.25
2022-08-30T21:31:07.818Z,8.32
2022-08-30T21:33:35.616Z,10.60
2022-08-30T21:36:21.744Z,7.07
2022-08-30T21:38:48.878Z,6.65
2022-08-30T21:41:16.136Z,6.45
2022-08-30T21:43:43.447Z,4.95
2022-08-30T21:46:11.495Z,3.17
2022-08-30T21:48:38.822Z,2.25
2022-08-30T21:51:07.240Z,1.55
2022-08-30T21:53:34.563Z,1.83
2022-08-30T21:56:13.119Z,4.50
2022-08-30T21:58:42.688Z,2.58
2022-08-30T22:01:15.785Z,1.77
2022-08-30T22:03:43.866Z,2.78
2022-08-30T22:06:12.471Z,1.98
2022-08-30T22:08:42.087Z,1.52
2022-08-30T22:11:11.537Z,3.63
2022-08-30T22:13:42.691Z,2.25
2022-08-30T22:16:12.189Z,2.00
2022-08-30T22:18:40.767Z,1.80
2022-08-30T22:21:08.740Z,2.80
2022-08-30T22:23:38.148Z,2.90
2022-08-30T22:26:08.126Z,2.40
2022-08-30T22:28:36.329Z,1.52
2022-08-30T22:31:08.367Z,1.95
2022-08-30T22:33:36.557Z,2.10
2022-08-30T22:36:16.726Z,3.17
2022-08-30T22:38:44.216Z,4.50
2022-08-30T22:41:14.303Z,3.40
2022-08-30T22:43:41.804Z,2.70
2022-08-30T22:46:09.216Z,2.00
2022-08-30T22:48:38.057Z,4.43
2022-08-30T22:51:05.526Z,5.05
2022-08-30T22:53:33.100Z,2.38
2022-08-30T22:56:01.256Z,1.85
2022-08-30T22:58:29.963Z,2.40
2022-08-30T23:00:57.172Z,3.03
2022-08-30T23:03:27.883Z,1.73
2022-08-30T23:05:55.030Z,2.58
2022-08-30T23:08:22.762Z,3.20
2022-08-30T23:10:49.949Z,2.25
2022-08-30T23:13:17.238Z,1.98
2022-08-30T23:15:44.570Z,2.97
2022-08-30T23:18:11.729Z,2.58
2022-08-30T23:20:38.916Z,3.15
2022-08-30T23:23:06.016Z,4.57
2022-08-30T23:25:52.943Z,2.25
2022-08-30T23:28:39.744Z,2.15
2022-08-30T23:31:34.115Z,1.38
2022-08-30T23:34:20.665Z,2.03
2022-08-30T23:37:06.504Z,1.65
2022-08-30T23:42:38.152Z,3.33
2022-08-30T23:48:09.788Z,2.67
2022-08-30T23:50:55.634Z,5.57
2022-08-30T23:56:31.558Z,2.30
2022-08-30T23:59:17.640Z,3.65
